Independence — WDF3297 — position and weather

sailwx.info

Track history (hours):
 
Tides and Currents Weather Stations Pressure Air Temp Water Temp Dewpoint Dewpoint Depression Visibility Wind Speed Wind Dir Waves Ship Positions

Independence

Owner: American Cruise Lines Inc., Delmar, DE. More information available from US FCC via Universal Licensing System and Coast Guard Vessel Documentation Center.

Last reported at 2018-Apr-24 10:25 UTC. Time now 2018-Apr-24 10:52 UTC.
Position N 32°05' W 081°05'.

Length 65 m; draft 2.5 m.

Type: Passenger vessel. MMSI: 367438210.

Date/timePositionNaut miles runAvg speedWind from/ knotsBaromVisibWave heightAir tempDewpointWater temp
2018-Apr-24 10:25N 32°05' W 081°05'0 0.0
2018-Apr-24 09:49N 32°05' W 081°05'0 0.0
2018-Apr-24 09:31N 32°05' W 081°05'0 0.7
2018-Apr-24 09:00N 32°05' W 081°05'5 9.2
2018-Apr-24 08:30N 32°05' W 080°59'1 2.9
2018-Apr-24 08:00N 32°04' W 081°01'2 4.6
2018-Apr-24 07:29N 32°03' W 081°03'2 3.3
2018-Apr-24 07:00N 32°01' W 081°01'3 5.4
2018-Apr-24 06:30N 31°59' W 081°03'2 4.5
2018-Apr-24 06:00N 31°57' W 081°04'2 4.0
2018-Apr-24 05:30N 31°56' W 081°06'4 6.6
2018-Apr-24 04:56N 31°52' W 081°05'2 4.2
2018-Apr-24 04:22N 31°51' W 081°08'  
2018-Apr-18 13:16N 31°51' W 081°08'3 9.2
2018-Apr-18 13:00N 31°52' W 081°05'4 7.6
2018-Apr-18 12:29N 31°55' W 081°06'3 5.3
2018-Apr-18 12:00N 31°57' W 081°04'3 6.7
2018-Apr-18 11:30N 31°60' W 081°01'3 5.9
2018-Apr-18 10:59N 32°02' W 081°03'1 2.3
2018-Apr-18 10:30N 32°03' W 081°02'0 0.1
2018-Apr-18 10:00N 32°03' W 081°02'2 3.1
2018-Apr-18 09:30N 32°04' W 081°01'1 2.8
2018-Apr-18 08:58N 32°06' W 080°60'4 9.2
2018-Apr-18 08:30N 32°05' W 081°04'1 1.3
2018-Apr-18 07:46N 32°05' W 081°06'0 0.0
2018-Apr-18 07:28N 32°05' W 081°06'0 0.0
2018-Apr-18 06:58N 32°05' W 081°06'0 0.0
2018-Apr-18 06:16N 32°05' W 081°06'0 0.0
2018-Apr-18 05:46N 32°05' W 081°06'0 0.0
2018-Apr-18 05:22N 32°05' W 081°06'0 0.0
2018-Apr-18 04:58N 32°05' W 081°06'0 0.0
2018-Apr-18 04:28N 32°05' W 081°06'0 0.0
2018-Apr-18 03:58N 32°05' W 081°06'0 0.0
2018-Apr-18 03:28N 32°05' W 081°06'0 0.0
2018-Apr-18 02:46N 32°05' W 081°06'0 0.0
2018-Apr-18 02:22N 32°05' W 081°06'0 0.0
2018-Apr-18 01:58N 32°05' W 081°06'0 0.0
2018-Apr-18 01:28N 32°05' W 081°06'0 0.0
2018-Apr-18 00:58N 32°05' W 081°06'0 0.0
2018-Apr-18 00:10N 32°05' W 081°06'0 0.0
2018-Apr-17 23:58N 32°05' W 081°06'0 0.0
2018-Apr-17 23:28N 32°05' W 081°06'0 0.0
2018-Apr-17 22:58N 32°05' W 081°06'0 0.0
2018-Apr-17 22:28N 32°05' W 081°06'0 0.0
2018-Apr-17 21:58N 32°05' W 081°06'0 0.0
2018-Apr-17 21:28N 32°05' W 081°06'0 0.0
2018-Apr-17 20:52N 32°05' W 081°06'0 0.0
2018-Apr-17 20:28N 32°05' W 081°06'0 0.0
2018-Apr-17 19:58N 32°05' W 081°06'0 0.0
2018-Apr-17 19:16N 32°05' W 081°06'0 0.0
2018-Apr-17 18:58N 32°05' W 081°06'0 0.0
2018-Apr-17 18:28N 32°05' W 081°06'0 0.0
2018-Apr-17 17:58N 32°05' W 081°06'0 0.0
2018-Apr-17 17:28N 32°05' W 081°06'0 0.0
2018-Apr-17 16:58N 32°05' W 081°06'0 0.0
2018-Apr-17 16:28N 32°05' W 081°06'0 0.0
2018-Apr-17 15:58N 32°05' W 081°06'0 0.0
2018-Apr-17 15:16N 32°05' W 081°06'0 0.0
2018-Apr-17 14:58N 32°05' W 081°06'0 0.0
2018-Apr-17 14:16N 32°05' W 081°06'0 0.0
2018-Apr-17 13:58N 32°05' W 081°06'0 0.0
2018-Apr-17 13:28N 32°05' W 081°06'0 0.0
2018-Apr-17 12:58N 32°05' W 081°06'0 0.0
2018-Apr-17 12:28N 32°05' W 081°06'0 0.0
2018-Apr-17 11:58N 32°05' W 081°06'0 0.0
2018-Apr-17 11:28N 32°05' W 081°06'0 0.0
2018-Apr-17 10:16N 32°05' W 081°06'0 0.0
2018-Apr-17 09:58N 32°05' W 081°06'0 0.0
2018-Apr-17 09:28N 32°05' W 081°06'0 0.0
2018-Apr-17 08:58N 32°05' W 081°06'0 0.0
2018-Apr-17 08:28N 32°05' W 081°06'0 0.0
2018-Apr-17 07:58N 32°05' W 081°06'0 0.0
2018-Apr-17 07:16N 32°05' W 081°06'0 0.0
2018-Apr-17 06:58N 32°05' W 081°06'0 0.0
2018-Apr-17 06:22N 32°05' W 081°06'0 0.0
2018-Apr-17 05:52N 32°05' W 081°06'0 0.0
2018-Apr-17 05:22N 32°05' W 081°06'0 0.0
2018-Apr-17 04:52N 32°05' W 081°06'0 0.0
2018-Apr-17 04:28N 32°05' W 081°06'0 0.0
2018-Apr-17 03:58N 32°05' W 081°06'0 0.0
2018-Apr-17 03:28N 32°05' W 081°06'0 0.0
2018-Apr-17 02:52N 32°05' W 081°06'0 0.0
2018-Apr-17 02:04N 32°05' W 081°06'0 0.0
2018-Apr-17 01:46N 32°05' W 081°06'0 0.0
2018-Apr-17 01:28N 32°05' W 081°06'0 0.0
2018-Apr-17 00:58N 32°05' W 081°06'0 0.0
2018-Apr-17 00:28N 32°05' W 081°06'0 0.0
2018-Apr-16 23:52N 32°05' W 081°06'0 0.0
2018-Apr-16 23:28N 32°05' W 081°06'0 0.0
2018-Apr-16 22:58N 32°05' W 081°06'0 0.0
2018-Apr-16 22:28N 32°05' W 081°06'0 0.0
2018-Apr-16 21:52N 32°05' W 081°06'0 0.0
2018-Apr-16 21:28N 32°05' W 081°06'0 0.0
2018-Apr-16 20:58N 32°05' W 081°06'0 0.0
2018-Apr-16 20:28N 32°05' W 081°06'0 0.0
2018-Apr-16 19:46N 32°05' W 081°06'0 0.0
2018-Apr-16 19:22N 32°05' W 081°06'0 0.0
2018-Apr-16 18:58N 32°05' W 081°06'0 0.0
2018-Apr-16 18:28N 32°05' W 081°06'0 0.0
2018-Apr-16 17:58N 32°05' W 081°06'0 0.0
2018-Apr-16 17:30N 32°05' W 081°06'0 0.2
2018-Apr-16 17:00N 32°05' W 081°06'3 6.9
2018-Apr-16 16:30N 32°05' W 081°02'3 5.7
2018-Apr-16 15:59N 32°04' W 080°58'3 5.8
2018-Apr-16 15:30N 32°05' W 080°55'3 6.8
2018-Apr-16 15:00N 32°08' W 080°53'3 5.7
2018-Apr-16 14:28N 32°08' W 080°49'0 0.3
2018-Apr-16 14:00N 32°08' W 080°49'4 7.7
2018-Apr-16 13:27N 32°12' W 080°47'  
Track history (hours):
 
Tides and Currents Weather Stations Pressure Air Temp Water Temp Dewpoint Dewpoint Depression Visibility Wind Speed Wind Dir Waves Ship Positions

Independence

Owner: American Cruise Lines Inc., Delmar, DE. More information available from US FCC via Universal Licensing System and Coast Guard Vessel Documentation Center.

Last reported at 2018-Apr-24 10:25 UTC. Time now 2018-Apr-24 10:52 UTC.
Position N 32°05' W 081°05'.

Length 65 m; draft 2.5 m.

Type: Passenger vessel. MMSI: 367438210.

Date/timePositionNaut miles runAvg speedWind from/ knotsBaromVisibWave heightAir tempDewpointWater temp
2018-Apr-24 10:25N 32°05' W 081°05'0 0.0
2018-Apr-24 09:49N 32°05' W 081°05'0 0.0
2018-Apr-24 09:31N 32°05' W 081°05'0 0.7
2018-Apr-24 09:00N 32°05' W 081°05'5 9.2
2018-Apr-24 08:30N 32°05' W 080°59'1 2.9
2018-Apr-24 08:00N 32°04' W 081°01'2 4.6
2018-Apr-24 07:29N 32°03' W 081°03'2 3.3
2018-Apr-24 07:00N 32°01' W 081°01'3 5.4
2018-Apr-24 06:30N 31°59' W 081°03'2 4.5
2018-Apr-24 06:00N 31°57' W 081°04'2 4.0
2018-Apr-24 05:30N 31°56' W 081°06'4 6.6
2018-Apr-24 04:56N 31°52' W 081°05'2 4.2
2018-Apr-24 04:22N 31°51' W 081°08'  
2018-Apr-18 13:16N 31°51' W 081°08'3 9.2
2018-Apr-18 13:00N 31°52' W 081°05'4 7.6
2018-Apr-18 12:29N 31°55' W 081°06'3 5.3
2018-Apr-18 12:00N 31°57' W 081°04'3 6.7
2018-Apr-18 11:30N 31°60' W 081°01'3 5.9
2018-Apr-18 10:59N 32°02' W 081°03'1 2.3
2018-Apr-18 10:30N 32°03' W 081°02'0 0.1
2018-Apr-18 10:00N 32°03' W 081°02'2 3.1
2018-Apr-18 09:30N 32°04' W 081°01'1 2.8
2018-Apr-18 08:58N 32°06' W 080°60'4 9.2
2018-Apr-18 08:30N 32°05' W 081°04'1 1.3
2018-Apr-18 07:46N 32°05' W 081°06'0 0.0
2018-Apr-18 07:28N 32°05' W 081°06'0 0.0
2018-Apr-18 06:58N 32°05' W 081°06'0 0.0
2018-Apr-18 06:16N 32°05' W 081°06'0 0.0
2018-Apr-18 05:46N 32°05' W 081°06'0 0.0
2018-Apr-18 05:22N 32°05' W 081°06'0 0.0
2018-Apr-18 04:58N 32°05' W 081°06'0 0.0
2018-Apr-18 04:28N 32°05' W 081°06'0 0.0
2018-Apr-18 03:58N 32°05' W 081°06'0 0.0
2018-Apr-18 03:28N 32°05' W 081°06'0 0.0
2018-Apr-18 02:46N 32°05' W 081°06'0 0.0
2018-Apr-18 02:22N 32°05' W 081°06'0 0.0
2018-Apr-18 01:58N 32°05' W 081°06'0 0.0
2018-Apr-18 01:28N 32°05' W 081°06'0 0.0
2018-Apr-18 00:58N 32°05' W 081°06'0 0.0
2018-Apr-18 00:10N 32°05' W 081°06'0 0.0
2018-Apr-17 23:58N 32°05' W 081°06'0 0.0
2018-Apr-17 23:28N 32°05' W 081°06'0 0.0
2018-Apr-17 22:58N 32°05' W 081°06'0 0.0
2018-Apr-17 22:28N 32°05' W 081°06'0 0.0
2018-Apr-17 21:58N 32°05' W 081°06'0 0.0
2018-Apr-17 21:28N 32°05' W 081°06'0 0.0
2018-Apr-17 20:52N 32°05' W 081°06'0 0.0
2018-Apr-17 20:28N 32°05' W 081°06'0 0.0
2018-Apr-17 19:58N 32°05' W 081°06'0 0.0
2018-Apr-17 19:16N 32°05' W 081°06'0 0.0
2018-Apr-17 18:58N 32°05' W 081°06'0 0.0
2018-Apr-17 18:28N 32°05' W 081°06'0 0.0
2018-Apr-17 17:58N 32°05' W 081°06'0 0.0
2018-Apr-17 17:28N 32°05' W 081°06'0 0.0
2018-Apr-17 16:58N 32°05' W 081°06'0 0.0
2018-Apr-17 16:28N 32°05' W 081°06'0 0.0
2018-Apr-17 15:58N 32°05' W 081°06'0 0.0
2018-Apr-17 15:16N 32°05' W 081°06'0 0.0
2018-Apr-17 14:58N 32°05' W 081°06'0 0.0
2018-Apr-17 14:16N 32°05' W 081°06'0 0.0
2018-Apr-17 13:58N 32°05' W 081°06'0 0.0
2018-Apr-17 13:28N 32°05' W 081°06'0 0.0
2018-Apr-17 12:58N 32°05' W 081°06'0 0.0
2018-Apr-17 12:28N 32°05' W 081°06'0 0.0
2018-Apr-17 11:58N 32°05' W 081°06'0 0.0
2018-Apr-17 11:28N 32°05' W 081°06'0 0.0
2018-Apr-17 10:16N 32°05' W 081°06'0 0.0
2018-Apr-17 09:58N 32°05' W 081°06'0 0.0
2018-Apr-17 09:28N 32°05' W 081°06'0 0.0
2018-Apr-17 08:58N 32°05' W 081°06'0 0.0
2018-Apr-17 08:28N 32°05' W 081°06'0 0.0
2018-Apr-17 07:58N 32°05' W 081°06'0 0.0
2018-Apr-17 07:16N 32°05' W 081°06'0 0.0
2018-Apr-17 06:58N 32°05' W 081°06'0 0.0
2018-Apr-17 06:22N 32°05' W 081°06'0 0.0
2018-Apr-17 05:52N 32°05' W 081°06'0 0.0
2018-Apr-17 05:22N 32°05' W 081°06'0 0.0
2018-Apr-17 04:52N 32°05' W 081°06'0 0.0
2018-Apr-17 04:28N 32°05' W 081°06'0 0.0
2018-Apr-17 03:58N 32°05' W 081°06'0 0.0
2018-Apr-17 03:28N 32°05' W 081°06'0 0.0
2018-Apr-17 02:52N 32°05' W 081°06'0 0.0
2018-Apr-17 02:04N 32°05' W 081°06'0 0.0
2018-Apr-17 01:46N 32°05' W 081°06'0 0.0
2018-Apr-17 01:28N 32°05' W 081°06'0 0.0
2018-Apr-17 00:58N 32°05' W 081°06'0 0.0
2018-Apr-17 00:28N 32°05' W 081°06'0 0.0
2018-Apr-16 23:52N 32°05' W 081°06'0 0.0
2018-Apr-16 23:28N 32°05' W 081°06'0 0.0
2018-Apr-16 22:58N 32°05' W 081°06'0 0.0
2018-Apr-16 22:28N 32°05' W 081°06'0 0.0
2018-Apr-16 21:52N 32°05' W 081°06'0 0.0
2018-Apr-16 21:28N 32°05' W 081°06'0 0.0
2018-Apr-16 20:58N 32°05' W 081°06'0 0.0
2018-Apr-16 20:28N 32°05' W 081°06'0 0.0
2018-Apr-16 19:46N 32°05' W 081°06'0 0.0
2018-Apr-16 19:22N 32°05' W 081°06'0 0.0
2018-Apr-16 18:58N 32°05' W 081°06'0 0.0
2018-Apr-16 18:28N 32°05' W 081°06'0 0.0
2018-Apr-16 17:58N 32°05' W 081°06'0 0.0
2018-Apr-16 17:30N 32°05' W 081°06'0 0.2
2018-Apr-16 17:00N 32°05' W 081°06'3 6.9
2018-Apr-16 16:30N 32°05' W 081°02'3 5.7
2018-Apr-16 15:59N 32°04' W 080°58'3 5.8
2018-Apr-16 15:30N 32°05' W 080°55'3 6.8
2018-Apr-16 15:00N 32°08' W 080°53'3 5.7
2018-Apr-16 14:28N 32°08' W 080°49'0 0.3
2018-Apr-16 14:00N 32°08' W 080°49'4 7.7
2018-Apr-16 13:27N 32°12' W 080°47'  

Dump ship's entire track history